Latest Conditions
At L.F.Wade Int. Airport
Recorded at 2:55 am
Few Clouds
Temp.: 
15°C/59°F
Humidity: 
69%
Wind: 
WNW 6KT
or 7mph
UV Index: 
0
Island Observations
 
Observations
Friday, March 05, 2021

Observations are in local time and taken at least once an hour, or upon the start and end of specified events such as showers and thunderstorms.

Time Sky / Weather Wind Speed/Gusts Temp. R.H. Pressure
     knots (mph)  °C (°F)  %  mb / "Hg
 02:55 Few Clouds  WNW 6/0 (7/0) 15(59) 69 1009 / 29.80
 01:55 Mostly Cloudy  W 6/0 (7/0) 15(60) 65 1009 / 29.81
 00:55 Mostly Cloudy  W 6/0 (7/0) 17(62) 59 1010 / 29.82
 23:55 Partly Cloudy  WNW 5/0 (6/0) 15(59) 64 1010 / 29.82
 22:55 Partly Cloudy  NW 7/0 (8/0) 16(60) 65 1010 / 29.83
 21:55 Mostly Cloudy  WNW 5/0 (6/0) 16(60) 66 1010 / 29.83
 20:55 Partly Cloudy  NW 7/0 (8/0) 16(61) 63 1010 / 29.83
 19:55 Partly Cloudy  NW 7/0 (8/0) 17(62) 64 1010 / 29.82
 18:55 Partly Cloudy  NW 6/0 (7/0) 17(62) 68 1009 / 29.81
 17:55 Mostly Cloudy  NNW 6/0 (7/0) 18(64) 66 1009 / 29.79
 16:55 Partly Cloudy  NNW 9/0 (10/0) 18(65) 65 1008 / 29.77
 15:55 Partly Cloudy  N 10/0 (12/0) 18(65) 65 1007 / 29.75
 14:55 Mostly Cloudy  N 10/0 (12/0) 19(66) 69 1007 / 29.73
 13:55 Mostly Cloudy  N 12/0 (14/0) 19(67) 65 1006 / 29.70
 12:55 Mostly Cloudy  N 12/0 (14/0) 19(66) 71 1007 / 29.75
 12:32 Partly Cloudy  N 12/0 (14/0) 19(67) 71 1007 / 29.74
 11:55 Mostly Cloudy  N 13/0 (15/0) 19(65) 78 1007 / 29.75
 11:16 Mostly Cloudy  NNE 14/0 (16/0) 18(64) 82 1007 / 29.75
 11:08 Mostly Cloudy Drizzle NNE 13/0 (15/0) 17(63) 88 1007 / 29.74
 10:55 Mostly Cloudy Drizzle N 14/0 (16/0) 17(63) 91 1007 / 29.75
 10:27 Mostly Cloudy Showers N 13/0 (15/0) 18(64) 84 1007 / 29.74
 09:55 Mostly Cloudy  N 12/0 (14/0) 19(66) 79 1007 / 29.73
 08:55 Few Clouds  N 11/0 (13/0) 18(65) 77 1006 / 29.72
 08:14 Mostly Cloudy Showers NNE 10/0 (12/0) 17(63) 86 1006 / 29.70
 07:55 Mostly Cloudy Showers NNW 6/0 (7/0) 16(62) 93 1006 / 29.70
 06:55 Mostly Cloudy Showers W 3/0 (3/0) 17(63) 94 1005 / 29.69
 06:22 Mostly Cloudy  SSW 4/0 (5/0) 17(63) 93 1005 / 29.67
 05:55 Overcast Showers S 2/0 (2/0) 17(62) 95 1005 / 29.67
 04:55 Overcast Showers NW 9/0 (10/0) 17(63) 94 1005 / 29.67
 04:23 Overcast Rain NNW 8/0 (9/0) 18(65) 91 1005 / 29.68
 04:11 Overcast Showers WNW 15/0 (17/0) 18(65) 92 1005 / 29.68
 03:55 Overcast Showers W 14/0 (16/0) 18(64) 96 1004 / 29.65
 03:36 Overcast Showers W 21/0 (24/0) 18(64) 98 1005 / 29.67
 03:23 Overcast Thunderstorm W 21/0 (24/0) 18(64) 98 1005 / 29.68
 03:12 Overcast Thunderstorm WSW 18/0 (21/0) 18(64) 97 1005 / 29.68
 03:06 Overcast Showers WSW 16/0 (18/0) 18(65) 95 1005 / 29.67
 02:55 Overcast Rain W 18/0 (21/0) 18(65) 94 1004 / 29.65
 02:39 Overcast Rain W 19/0 (22/0) 19(66) 92 1004 / 29.66
 02:21 Overcast Rain WSW 18/0 (21/0) 19(67) 88 1005 / 29.67
 01:55 Overcast Rain SW 18/0 (21/0) 19(66) 88 1005 / 29.69
 01:37 Overcast Showers WSW 20/34 (23/39) 17(63) 99 1005 / 29.69
 01:28 Overcast Thunderstorm WSW 23/0 (26/0) 17(63) 99 1006 / 29.70
 01:21 Overcast Thunderstorm WSW 23/0 (26/0) 17(62) 99 1006 / 29.71
 01:17 Overcast Thunderstorm WSW 25/38 (29/44) 17(62) 99 1006 / 29.72
 01:08 Overcast Thunderstorm W 33/45 (38/52) 18(65) 89 1007 / 29.74
 01:05 Overcast Thunderstorm W 30/45 (35/52) 19(66) 82 1007 / 29.75
 00:58 Overcast Thunderstorm W 20/0 (23/0) 21(69) 88 1007 / 29.73
 00:55 Overcast Showers W 17/0 (20/0) 21(69) 87 1007 / 29.73
 23:55 Overcast  SW 25/0 (29/0) 21(69) 86 1006 / 29.71
 22:55 Overcast  SSW 25/0 (29/0) 21(69) 86 1007 / 29.75
 21:55 Overcast  SSW 22/0 (25/0) 20(69) 88 1008 / 29.76
 21:12 Overcast  SW 24/0 (28/0) 20(68) 92 1008 / 29.78
 20:55 Overcast Rain S 25/35 (29/40) 20(68) 90 1009 / 29.79
 20:48 Overcast Rain S 25/35 (29/40) 20(68) 90 1009 / 29.79
 20:39 Overcast Rain SSW 25/35 (29/40) 20(68) 91 1009 / 29.79
 20:11 Overcast  SSE 15/0 (17/0) 19(67) 90 1009 / 29.80
 19:55 Overcast  ESE 14/0 (16/0) 18(65) 92 1010 / 29.83
 19:18 Overcast  ESE 15/0 (17/0) 16(61) 94 1011 / 29.86
 18:55 Overcast Rain ESE 12/0 (14/0) 16(60) 94 1012 / 29.89
 18:45 Overcast Rain ESE 12/0 (14/0) 16(60) 95 1012 / 29.89
 18:09 Overcast Rain E 13/0 (15/0) 15(60) 94 1013 / 29.91
 17:55 Overcast Rain E 14/0 (16/0) 15(58) 95 1013 / 29.90
 17:41 Overcast Rain E 13/0 (15/0) 14(58) 94 1013 / 29.91
 17:26 Overcast Rain E 13/0 (15/0) 14(58) 93 1013 / 29.92
 17:12 Overcast Rain E 11/0 (13/0) 14(57) 91 1014 / 29.93
 16:55 Overcast Rain E 10/0 (12/0) 14(58) 90 1014 / 29.95
 16:45 Overcast Rain ESE 11/0 (13/0) 14(57) 90 1014 / 29.95
 16:25 Overcast Rain E 8/0 (9/0) 14(57) 90 1015 / 29.98
 16:01 Overcast Rain E 9/0 (10/0) 14(58) 90 1015 / 29.98
 15:55 Overcast Rain ENE 7/0 (8/0) 14(57) 89 1016 / 29.99
 14:55 Overcast Rain NNE 6/0 (7/0) 14(57) 89 1017 / 30.03
 14:08 Overcast Rain ENE 3/0 (3/0) 14(57) 87 1017 / 30.04
 13:55 Overcast Drizzle NNE 3/0 (3/0) 14(57) 87 1018 / 30.05
 13:27 Overcast Drizzle ENE 4/0 (5/0) 14(56) 87 1018 / 30.05
 13:18 Overcast Rain ENE 3/0 (3/0) 14(56) 85 1018 / 30.06
 12:55 Overcast Rain SSE 5/0 (6/0) 14(57) 83 1019 / 30.09
 12:46 Overcast Rain S 6/0 (7/0) 14(56) 85 1019 / 30.09
 12:35 Overcast Rain S 8/0 (9/0) 14(58) 84 1020 / 30.11
 12:06 Overcast Rain S 6/0 (7/0) 15(59) 75 1020 / 30.11
 11:55 Overcast  SSE 7/0 (8/0) 15(60) 72 1019 / 30.10
 11:38 Overcast  SSE 6/0 (7/0) 15(59) 71 1019 / 30.09
 11:19 Overcast Drizzle SSE 4/0 (5/0) 15(60) 69 1020 / 30.12
 10:55 Overcast Rain S 4/0 (5/0) 15(59) 67 1020 / 30.12
 10:39 Overcast Rain SSW 3/0 (3/0) 15(59) 65 1020 / 30.13
 10:01 Overcast  Calm 15(59) 64 1021 / 30.14
 09:55 Overcast Rain Calm 15(59) 64 1020 / 30.13
 08:55 Overcast Rain NNW 1/0 (1/0) 15(58) 67 1021 / 30.14
 08:17 Overcast Rain E 2/0 (2/0) 14(58) 67 1020 / 30.12
 07:55 Overcast  Calm 15(59) 61 1020 / 30.13
 06:55 Overcast  N 3/0 (3/0) 14(57) 67 1020 / 30.11
 06:19 Overcast Rain NNE 2/0 (2/0) 14(58) 62 1019 / 30.10
 05:55 Overcast Showers N 3/0 (3/0) 14(58) 65 1019 / 30.10
 05:34 Overcast Showers NNW 14/0 (16/0) 14(58) 64 1019 / 30.10
 04:55 Overcast Showers NNW 5/0 (6/0) 14(58) 64 1020 / 30.11
 03:55 Overcast  NNW 6/0 (7/0) 14(58) 64 1019 / 30.10
 02:55 Overcast  NW 6/0 (7/0) 15(58) 62 1020 / 30.11
 01:55 Overcast  NNW 6/0 (7/0) 14(58) 59 1020 / 30.12
 00:55 Overcast  NW 8/0 (9/0) 15(58) 56 1020 / 30.12
 23:55 Overcast  NNW 10/0 (12/0) 15(58) 61 1021 / 30.14
 22:55 Mostly Cloudy  NNW 10/0 (12/0) 14(58) 57 1020 / 30.12
Island AWOS